createdAt,value
2022-09-26T00:01:47.575Z,98299.53
2022-09-26T00:03:53.905Z,98305.72
2022-09-26T00:06:03.008Z,98306.75
2022-09-26T00:08:05.723Z,98298.69
2022-09-26T00:10:07.987Z,98301.53
2022-09-26T00:12:09.751Z,98298.69
2022-09-26T00:14:19.078Z,98304.06
2022-09-26T00:16:20.985Z,98303.06
2022-09-26T00:18:22.970Z,98302.41
2022-09-26T00:20:24.657Z,98311.09
2022-09-26T00:22:26.324Z,98307.75
2022-09-26T00:24:28.037Z,98311.44
2022-09-26T00:26:30.800Z,98307.75
2022-09-26T00:28:32.585Z,98309.44
2022-09-26T00:30:36.904Z,98309.44
2022-09-26T00:32:38.421Z,98321.84
2022-09-26T00:34:40.081Z,98313.97
2022-09-26T00:36:41.760Z,98319.66
2022-09-26T00:38:43.818Z,98318.78
2022-09-26T00:40:45.754Z,98324.69
2022-09-26T00:42:47.581Z,98321.31
2022-09-26T00:44:50.800Z,98323.19
2022-09-26T00:46:52.506Z,98321.66
2022-09-26T00:49:31.560Z,98328.84
2022-09-26T00:51:35.290Z,98328.84
2022-09-26T00:53:40.301Z,98327.31
2022-09-26T00:55:48.370Z,98329.00
2022-09-26T00:57:56.736Z,98329.84
2022-09-26T01:00:02.157Z,98329.84
2022-09-26T01:02:04.082Z,98321.09
2022-09-26T01:04:05.904Z,98329.00
2022-09-26T01:06:07.680Z,98331.69
2022-09-26T01:08:09.375Z,98328.31
2022-09-26T01:10:11.216Z,98324.63
2022-09-26T01:12:12.893Z,98328.69
2022-09-26T01:14:14.676Z,98322.47
2022-09-26T01:16:16.416Z,98320.50
2022-09-26T01:18:18.197Z,98325.88
2022-09-26T01:20:29.009Z,98327.00
2022-09-26T01:22:37.541Z,98319.09
2022-09-26T01:24:50.691Z,98321.78
2022-09-26T01:27:01.048Z,98326.84
2022-09-26T01:29:37.153Z,98318.28
2022-09-26T01:31:42.438Z,98324.47
2022-09-26T01:34:04.200Z,98335.06
2022-09-26T01:36:43.985Z,98333.22
2022-09-26T01:38:48.632Z,98325.31
2022-09-26T01:41:24.300Z,98329.69
2022-09-26T01:43:26.725Z,98327.00
2022-09-26T01:45:33.962Z,98337.06
2022-09-26T01:47:41.707Z,98340.44
2022-09-26T01:49:50.936Z,98338.59
2022-09-26T01:51:57.670Z,98335.34
2022-09-26T01:54:06.489Z,98342.44
2022-09-26T01:56:14.199Z,98341.59
2022-09-26T01:58:31.790Z,98341.59
2022-09-26T02:00:34.512Z,98343.41
2022-09-26T02:02:38.391Z,98343.41
2022-09-26T02:04:41.868Z,98343.59
2022-09-26T02:06:57.035Z,98348.78
2022-09-26T02:09:01.616Z,98347.63
2022-09-26T02:11:14.847Z,98349.66
2022-09-26T02:13:21.857Z,98354.16
2022-09-26T02:15:24.016Z,98352.34
2022-09-26T02:17:27.004Z,98352.34
2022-09-26T02:19:30.204Z,98353.31
2022-09-26T02:21:31.978Z,98355.00
2022-09-26T02:23:33.644Z,98354.31
2022-09-26T02:25:35.369Z,98359.50
2022-09-26T02:27:37.138Z,98364.03
2022-09-26T02:29:38.839Z,98363.22
2022-09-26T02:31:46.199Z,98365.75
2022-09-26T02:33:49.517Z,98357.84
2022-09-26T02:35:51.285Z,98367.03
2022-09-26T02:37:53.058Z,98362.66
2022-09-26T02:39:54.761Z,98363.53
2022-09-26T02:42:02.506Z,98369.72
2022-09-26T02:44:12.239Z,98371.41
2022-09-26T02:46:51.199Z,98364.03
2022-09-26T02:49:04.970Z,98367.44
2022-09-26T02:51:35.902Z,98376.50
2022-09-26T02:53:49.133Z,98373.81
2022-09-26T02:56:22.753Z,98372.09
2022-09-26T02:58:29.213Z,98367.56
2022-09-26T03:01:12.001Z,98361.38
2022-09-26T03:03:36.033Z,98362.06
2022-09-26T03:05:38.279Z,98370.25
2022-09-26T03:07:52.902Z,98364.03
2022-09-26T03:09:54.600Z,98363.72
2022-09-26T03:11:57.070Z,98366.72
2022-09-26T03:13:58.819Z,98363.22
2022-09-26T03:16:00.671Z,98368.44
2022-09-26T03:18:02.383Z,98363.06
2022-09-26T03:20:12.742Z,98368.59
2022-09-26T03:22:15.511Z,98368.72
2022-09-26T03:24:17.151Z,98374.41
2022-09-26T03:26:20.653Z,98371.72
2022-09-26T03:28:22.285Z,98371.72
2022-09-26T03:30:24.093Z,98367.19
2022-09-26T03:32:25.800Z,98377.09
2022-09-26T03:34:27.719Z,98384.00
2022-09-26T03:36:29.474Z,98382.47
2022-09-26T03:38:31.209Z,98381.75
2022-09-26T03:40:32.966Z,98388.44
2022-09-26T03:42:34.954Z,98390.28
2022-09-26T03:44:36.802Z,98385.75
2022-09-26T03:46:40.206Z,98386.75
2022-09-26T03:48:42.145Z,98394.34
2022-09-26T03:50:43.872Z,98391.81
2022-09-26T03:52:45.586Z,98395.19
2022-09-26T03:54:47.261Z,98399.09
2022-09-26T03:56:48.996Z,98395.75
2022-09-26T03:58:50.793Z,98397.72
2022-09-26T04:00:52.577Z,98397.34
2022-09-26T04:02:54.297Z,98394.81
2022-09-26T04:04:56.009Z,98391.41
2022-09-26T04:06:58.216Z,98401.16
2022-09-26T04:08:59.922Z,98401.00
2022-09-26T04:11:03.007Z,98405.53
2022-09-26T04:13:04.996Z,98397.47
2022-09-26T04:15:07.733Z,98398.31
2022-09-26T04:17:10.264Z,98401.09
2022-09-26T04:19:12.013Z,98399.94
2022-09-26T04:21:14.031Z,98400.19
2022-09-26T04:23:16.037Z,98402.69
2022-09-26T04:25:17.710Z,98403.34
2022-09-26T04:27:19.728Z,98407.06
2022-09-26T04:29:21.624Z,98408.53
2022-09-26T04:31:24.341Z,98410.53
2022-09-26T04:33:26.154Z,98405.09
2022-09-26T04:35:27.956Z,98414.31
2022-09-26T04:37:29.675Z,98412.19
2022-09-26T04:39:31.404Z,98415.06
2022-09-26T04:41:33.071Z,98409.06
2022-09-26T04:43:35.089Z,98411.81
2022-09-26T04:45:36.926Z,98417.03
2022-09-26T04:47:38.686Z,98416.59
2022-09-26T04:49:40.397Z,98409.06
2022-09-26T04:51:42.062Z,98417.13
2022-09-26T04:53:43.965Z,98413.78
2022-09-26T04:55:46.257Z,98423.63
2022-09-26T04:57:50.990Z,98421.97
2022-09-26T04:59:52.747Z,98416.47
2022-09-26T05:01:54.484Z,98417.44
2022-09-26T05:03:56.210Z,98421.66
2022-09-26T05:05:58.200Z,98416.47
2022-09-26T05:07:59.904Z,98415.69
2022-09-26T05:10:01.665Z,98411.47
2022-09-26T05:12:03.499Z,98424.25
2022-09-26T05:14:05.197Z,98423.38
2022-09-26T05:16:07.162Z,98422.28
2022-09-26T05:18:08.889Z,98420.81
2022-09-26T05:20:10.568Z,98429.06
2022-09-26T05:22:12.313Z,98425.78
2022-09-26T05:24:13.979Z,98429.75
2022-09-26T05:26:17.563Z,98420.63
2022-09-26T05:28:19.236Z,98434.75
2022-09-26T05:30:20.930Z,98435.75
2022-09-26T05:32:22.698Z,98434.22
2022-09-26T05:34:24.477Z,98437.75
2022-09-26T05:36:26.482Z,98429.00
2022-09-26T05:38:28.190Z,98434.38
2022-09-26T05:40:29.954Z,98431.69
2022-09-26T05:42:31.783Z,98430.97
2022-09-26T05:44:33.387Z,98441.44
2022-09-26T05:46:35.137Z,98446.09
2022-09-26T05:48:37.591Z,98440.03
2022-09-26T05:50:43.358Z,98433.00
2022-09-26T05:52:45.318Z,98435.69
2022-09-26T05:54:46.951Z,98441.72
2022-09-26T05:56:48.685Z,98438.75
2022-09-26T05:58:50.386Z,98450.47
2022-09-26T06:00:52.145Z,98449.50
2022-09-26T06:02:57.291Z,98447.66
2022-09-26T06:04:58.954Z,98456.41
2022-09-26T06:07:00.597Z,98448.66
2022-09-26T06:09:02.312Z,98459.53
2022-09-26T06:11:09.278Z,98454.47
2022-09-26T06:13:10.993Z,98458.13
2022-09-26T06:15:12.839Z,98459.81
2022-09-26T06:17:14.587Z,98462.50
2022-09-26T06:19:20.596Z,98447.38
2022-09-26T06:21:24.393Z,98464.31
2022-09-26T06:23:25.998Z,98463.63
2022-09-26T06:25:28.191Z,98466.31
2022-09-26T06:27:29.816Z,98471.84
2022-09-26T06:29:31.482Z,98472.81
2022-09-26T06:31:33.281Z,98470.13
2022-09-26T06:33:34.991Z,98476.50
2022-09-26T06:35:36.630Z,98473.81
2022-09-26T06:37:38.364Z,98469.28
2022-09-26T06:39:40.035Z,98473.81
2022-09-26T06:41:41.726Z,98472.81
2022-09-26T06:43:46.420Z,98475.66
2022-09-26T06:45:48.312Z,98475.50
2022-09-26T06:47:50.035Z,98481.88
2022-09-26T06:49:51.768Z,98480.47
2022-09-26T06:51:53.458Z,98489.22
2022-09-26T06:53:55.097Z,98482.44
2022-09-26T06:55:58.446Z,98484.28
2022-09-26T06:58:00.093Z,98487.66
2022-09-26T07:00:01.945Z,98491.19
2022-09-26T07:02:03.711Z,98491.19
2022-09-26T07:04:05.502Z,98494.88
2022-09-26T07:06:07.263Z,98492.31
2022-09-26T07:08:08.906Z,98498.53
2022-09-26T07:10:10.623Z,98503.06
2022-09-26T07:12:14.953Z,98496.72
2022-09-26T07:14:17.175Z,98507.44
2022-09-26T07:16:18.913Z,98508.41
2022-09-26T07:18:20.677Z,98509.00
2022-09-26T07:20:22.379Z,98510.09
2022-09-26T07:22:24.072Z,98510.78
2022-09-26T07:24:25.743Z,98508.09
2022-09-26T07:26:27.429Z,98519.81
2022-09-26T07:28:29.084Z,98526.19
2022-09-26T07:30:30.857Z,98517.13
2022-09-26T07:32:32.547Z,98519.94
2022-09-26T07:34:34.215Z,98522.63
2022-09-26T07:36:35.857Z,98521.09
2022-09-26T07:38:37.532Z,98521.78
2022-09-26T07:40:39.387Z,98522.50
2022-09-26T07:42:41.141Z,98523.63
2022-09-26T07:47:05.474Z,98529.84
2022-09-26T07:49:07.129Z,98526.00
2022-09-26T07:51:09.462Z,98528.69
2022-09-26T07:53:11.344Z,98527.56
2022-09-26T07:55:17.734Z,98532.91
2022-09-26T07:57:19.475Z,98535.59
2022-09-26T07:59:21.371Z,98527.84
2022-09-26T08:01:23.087Z,98534.22
2022-09-26T08:03:24.860Z,98533.22
2022-09-26T08:05:26.555Z,98533.34
2022-09-26T08:07:28.284Z,98538.06
2022-09-26T08:09:29.959Z,98539.88
2022-09-26T08:11:31.647Z,98543.84
2022-09-26T08:13:33.452Z,98545.66
2022-09-26T08:15:35.125Z,98541.84
2022-09-26T08:17:36.850Z,98546.25
2022-09-26T08:19:38.663Z,98538.31
2022-09-26T08:21:40.391Z,98538.88
2022-09-26T08:23:42.100Z,98553.28
2022-09-26T08:25:44.030Z,98540.03
2022-09-26T08:27:45.736Z,98558.94
2022-09-26T08:29:47.509Z,98552.75
2022-09-26T08:31:49.464Z,98556.25
2022-09-26T08:33:51.281Z,98564.59
2022-09-26T08:35:52.947Z,98554.72
2022-09-26T08:37:54.666Z,98555.84
2022-09-26T08:39:56.362Z,98557.25
2022-09-26T08:42:19.573Z,98568.53
2022-09-26T08:44:27.197Z,98562.63
2022-09-26T08:46:38.019Z,98568.25
2022-09-26T08:49:00.900Z,98568.25
2022-09-26T08:51:35.287Z,98566.28
2022-09-26T08:53:51.770Z,98567.28
2022-09-26T08:55:53.602Z,98570.50
2022-09-26T08:58:05.822Z,98576.44
2022-09-26T09:00:17.178Z,98574.75
2022-09-26T09:02:23.810Z,98577.00
2022-09-26T09:04:40.917Z,98573.34
2022-09-26T09:06:42.576Z,98587.44
2022-09-26T09:08:46.545Z,98583.38
2022-09-26T09:11:06.383Z,98586.75
2022-09-26T09:13:33.516Z,98589.44
2022-09-26T09:15:43.796Z,98584.22
2022-09-26T09:17:52.844Z,98591.13
2022-09-26T09:20:14.159Z,98596.50
2022-09-26T09:22:15.742Z,98594.66
2022-09-26T09:24:35.690Z,98593.94
2022-09-26T09:29:42.012Z,98601.16
2022-09-26T09:31:43.851Z,98599.31
2022-09-26T09:33:50.752Z,98603.00
2022-09-26T09:36:04.780Z,98603.84
2022-09-26T09:38:07.166Z,98602.84
2022-09-26T09:40:22.541Z,98607.22
2022-09-26T09:42:38.489Z,98608.91
2022-09-26T09:45:05.658Z,98603.53
2022-09-26T09:47:17.902Z,98600.72
2022-09-26T09:49:23.564Z,98602.44
2022-09-26T09:51:43.053Z,98613.16
2022-09-26T09:54:01.929Z,98608.91
2022-09-26T09:56:42.222Z,98617.94
2022-09-26T09:58:59.257Z,98619.22
2022-09-26T10:01:12.157Z,98615.69
2022-09-26T10:03:29.124Z,98615.41
2022-09-26T10:05:43.937Z,98613.59
2022-09-26T10:07:45.422Z,98612.59
2022-09-26T10:09:47.214Z,98620.50
2022-09-26T10:11:52.453Z,98618.66
2022-09-26T10:13:54.578Z,98618.78
2022-09-26T10:16:00.205Z,98618.25
2022-09-26T10:18:24.261Z,98623.63
2022-09-26T10:20:34.497Z,98624.59
2022-09-26T10:22:37.112Z,98626.13
2022-09-26T10:24:39.237Z,98634.34
2022-09-26T10:26:40.925Z,98623.75
2022-09-26T10:28:46.925Z,98630.94
2022-09-26T10:30:55.072Z,98625.28
2022-09-26T10:33:00.404Z,98619.22
2022-09-26T10:35:09.324Z,98623.63
2022-09-26T10:37:24.798Z,98623.63
2022-09-26T10:39:29.482Z,98630.09
2022-09-26T10:41:31.134Z,98634.59
2022-09-26T10:43:34.179Z,98629.63
2022-09-26T10:45:35.887Z,98627.81
2022-09-26T10:47:37.599Z,98626.13
2022-09-26T10:49:57.630Z,98634.88
2022-09-26T10:52:06.069Z,98634.88
2022-09-26T10:54:17.159Z,98640.22
2022-09-26T10:56:23.266Z,98650.41
2022-09-26T10:58:26.548Z,98644.19
2022-09-26T11:00:34.195Z,98644.19
2022-09-26T11:02:35.889Z,98644.88
2022-09-26T11:04:45.476Z,98629.50
2022-09-26T11:06:47.216Z,98643.66
2022-09-26T11:08:51.690Z,98645.34
2022-09-26T11:10:53.600Z,98639.97
2022-09-26T11:12:57.391Z,98653.25
2022-09-26T11:15:00.490Z,98650.69
2022-09-26T11:17:02.159Z,98649.16
2022-09-26T11:19:25.522Z,98650.13
2022-09-26T11:21:49.066Z,98652.09
2022-09-26T11:23:56.528Z,98646.59
2022-09-26T11:26:13.211Z,98652.69
2022-09-26T11:28:17.644Z,98657.47
2022-09-26T11:30:22.497Z,98649.28
2022-09-26T11:32:30.609Z,98657.19
2022-09-26T11:34:33.002Z,98651.69
2022-09-26T11:36:56.099Z,98656.34
2022-09-26T11:38:57.841Z,98652.81
2022-09-26T11:41:11.569Z,98655.63
2022-09-26T11:43:13.119Z,98656.34
2022-09-26T11:45:53.124Z,98656.34
2022-09-26T11:48:03.415Z,98657.19
2022-09-26T11:50:13.958Z,98663.41
2022-09-26T11:52:21.489Z,98665.09
2022-09-26T11:54:39.080Z,98659.88
2022-09-26T11:56:49.562Z,98665.94
2022-09-26T11:59:29.714Z,98663.41
2022-09-26T12:02:01.880Z,98673.28
2022-09-26T12:04:41.048Z,98674.16
2022-09-26T12:07:15.770Z,98675.28
2022-09-26T12:10:05.658Z,98678.81
2022-09-26T12:12:42.088Z,98678.63
2022-09-26T12:15:05.045Z,98678.63
2022-09-26T12:17:27.314Z,98676.66
2022-09-26T12:19:39.420Z,98682.19
2022-09-26T12:21:53.031Z,98686.84
2022-09-26T12:23:56.025Z,98684.28
2022-09-26T12:26:00.640Z,98689.66
2022-09-26T12:28:35.327Z,98675.41
2022-09-26T12:31:04.035Z,98680.66
2022-09-26T12:33:14.650Z,98681.47
2022-09-26T12:35:43.490Z,98683.16
2022-09-26T12:37:54.308Z,98686.84
2022-09-26T12:40:07.766Z,98689.63
2022-09-26T12:42:33.909Z,98689.31
2022-09-26T12:44:48.395Z,98695.78
2022-09-26T12:47:08.309Z,98698.03
2022-09-26T12:49:41.360Z,98695.78
2022-09-26T12:51:49.461Z,98699.91
2022-09-26T12:54:00.151Z,98697.88
2022-09-26T12:56:08.526Z,98691.94
2022-09-26T12:58:19.232Z,98699.63
2022-09-26T13:00:21.299Z,98691.72
2022-09-26T13:02:36.857Z,98695.44
2022-09-26T13:04:47.682Z,98708.09
2022-09-26T13:07:18.798Z,98711.75
2022-09-26T13:09:52.649Z,98711.03
2022-09-26T13:12:13.104Z,98705.56
2022-09-26T13:14:20.673Z,98711.53
2022-09-26T13:16:28.483Z,98705.56
2022-09-26T13:18:35.912Z,98710.66
2022-09-26T13:20:40.074Z,98711.38
2022-09-26T13:22:46.810Z,98712.41
2022-09-26T13:24:53.331Z,98710.06
2022-09-26T13:27:00.280Z,98706.31
2022-09-26T13:29:18.210Z,98711.22
2022-09-26T13:31:32.340Z,98711.22
2022-09-26T13:33:38.116Z,98712.09
2022-09-26T13:35:40.352Z,98718.91
2022-09-26T13:38:08.034Z,98715.22
2022-09-26T13:40:45.225Z,98720.50
2022-09-26T13:43:10.924Z,98717.84
2022-09-26T13:45:23.468Z,98723.59
2022-09-26T13:47:40.266Z,98715.84
2022-09-26T13:50:02.169Z,98720.63
2022-09-26T13:52:07.087Z,98722.31
2022-09-26T13:54:08.712Z,98724.00
2022-09-26T13:56:34.472Z,98727.19
2022-09-26T13:58:39.281Z,98723.47
2022-09-26T14:00:41.297Z,98730.19
2022-09-26T14:02:43.026Z,98736.13
2022-09-26T14:04:46.022Z,98728.31
2022-09-26T14:07:09.373Z,98729.38
2022-09-26T14:09:19.916Z,98734.78
2022-09-26T14:11:25.790Z,98738.13
2022-09-26T14:13:36.965Z,98732.44
2022-09-26T14:15:47.915Z,98729.19
2022-09-26T14:17:52.725Z,98731.06
2022-09-26T14:19:54.494Z,98737.94
2022-09-26T14:22:06.147Z,98730.59
2022-09-26T14:24:30.278Z,98731.44
2022-09-26T14:26:41.686Z,98738.84
2022-09-26T14:28:54.130Z,98734.13
2022-09-26T14:31:10.906Z,98731.25
2022-09-26T14:33:12.708Z,98732.28
2022-09-26T14:35:17.016Z,98741.38
2022-09-26T14:37:18.503Z,98739.00
2022-09-26T14:39:27.784Z,98740.53
2022-09-26T14:41:31.698Z,98740.84
2022-09-26T14:43:33.543Z,98751.00
2022-09-26T14:45:48.885Z,98746.09
2022-09-26T14:47:59.777Z,98753.03
2022-09-26T14:50:06.067Z,98750.69
2022-09-26T14:52:15.794Z,98759.97
2022-09-26T14:54:21.712Z,98752.69
2022-09-26T14:56:26.478Z,98758.22
2022-09-26T14:58:46.670Z,98758.00
2022-09-26T15:00:48.677Z,98765.78
2022-09-26T15:02:50.875Z,98761.16
2022-09-26T15:05:08.724Z,98771.75
2022-09-26T15:07:16.324Z,98763.84
2022-09-26T15:09:26.009Z,98766.00
2022-09-26T15:11:36.356Z,98768.03
2022-09-26T15:13:38.670Z,98757.91
2022-09-26T15:15:48.673Z,98772.03
2022-09-26T15:17:52.982Z,98777.97
2022-09-26T15:19:55.202Z,98760.88
2022-09-26T15:22:08.461Z,98772.28
2022-09-26T15:24:22.788Z,98781.81
2022-09-26T15:26:35.872Z,98784.63
2022-09-26T15:28:37.794Z,98782.97
2022-09-26T15:30:39.812Z,98785.28
2022-09-26T15:32:41.586Z,98785.91
2022-09-26T15:34:43.596Z,98787.13
2022-09-26T15:36:47.254Z,98798.16
2022-09-26T15:38:48.980Z,98795.28
2022-09-26T15:41:02.878Z,98801.72
2022-09-26T15:43:14.453Z,98802.34
2022-09-26T15:45:28.015Z,98805.88
2022-09-26T15:47:29.691Z,98800.19
2022-09-26T15:49:31.804Z,98807.19
2022-09-26T15:51:38.050Z,98818.28
2022-09-26T15:53:51.255Z,98814.91
2022-09-26T15:55:56.262Z,98811.16
2022-09-26T15:57:59.174Z,98821.47
2022-09-26T16:00:01.578Z,98816.34
2022-09-26T16:02:03.567Z,98817.25
2022-09-26T16:04:13.224Z,98822.28
2022-09-26T16:06:36.566Z,98818.78
2022-09-26T16:08:40.584Z,98813.09
2022-09-26T16:10:43.171Z,98820.22
2022-09-26T16:12:46.041Z,98818.59
2022-09-26T16:15:08.765Z,98819.91
2022-09-26T16:17:22.007Z,98817.72
2022-09-26T16:19:51.121Z,98821.09
2022-09-26T16:21:56.214Z,98822.09
2022-09-26T16:24:00.296Z,98821.38
2022-09-26T16:26:02.365Z,98821.31
2022-09-26T16:28:07.534Z,98823.63
2022-09-26T16:30:21.354Z,98830.63
2022-09-26T16:32:23.321Z,98820.16
2022-09-26T16:34:25.155Z,98825.06
2022-09-26T16:36:31.197Z,98821.16
2022-09-26T16:38:34.088Z,98825.44
2022-09-26T16:40:36.304Z,98824.78
2022-09-26T16:42:38.242Z,98823.69
2022-09-26T16:44:40.867Z,98830.19
2022-09-26T16:46:42.714Z,98828.88
2022-09-26T16:48:50.747Z,98831.41
2022-09-26T16:51:11.029Z,98831.59
2022-09-26T16:53:12.984Z,98829.13
2022-09-26T16:55:14.917Z,98824.78
2022-09-26T16:57:37.648Z,98822.22
2022-09-26T16:59:39.510Z,98819.53
2022-09-26T17:01:41.415Z,98822.03
2022-09-26T17:03:43.473Z,98820.50
2022-09-26T17:05:45.493Z,98817.41
2022-09-26T17:07:48.384Z,98822.25
2022-09-26T17:09:50.216Z,98826.81
2022-09-26T17:11:52.263Z,98832.44
2022-09-26T17:13:56.168Z,98828.09
2022-09-26T17:15:58.144Z,98821.72
2022-09-26T17:18:08.837Z,98831.25
2022-09-26T17:20:12.684Z,98830.56
2022-09-26T17:22:16.098Z,98834.28
2022-09-26T17:24:25.435Z,98831.03
2022-09-26T17:26:27.138Z,98831.72
2022-09-26T17:28:31.516Z,98832.91
2022-09-26T17:30:33.287Z,98837.59
2022-09-26T17:32:38.560Z,98833.63
2022-09-26T17:34:40.684Z,98833.94
2022-09-26T17:36:49.049Z,98843.69
2022-09-26T17:38:51.354Z,98842.72
2022-09-26T17:40:53.193Z,98845.78
2022-09-26T17:42:56.111Z,98842.72
2022-09-26T17:44:58.035Z,98850.06
2022-09-26T17:46:59.877Z,98851.06
2022-09-26T17:49:02.201Z,98853.69
2022-09-26T17:51:09.343Z,98852.34
2022-09-26T17:53:15.220Z,98856.69
2022-09-26T17:55:21.441Z,98856.38
2022-09-26T17:57:24.370Z,98856.38
2022-09-26T17:59:28.481Z,98854.59
2022-09-26T18:01:31.184Z,98860.34
2022-09-26T18:03:36.356Z,98861.31
2022-09-26T18:05:38.866Z,98862.06
2022-09-26T18:07:40.930Z,98866.44
2022-09-26T18:09:42.947Z,98867.72
2022-09-26T18:11:48.924Z,98872.28
2022-09-26T18:13:53.163Z,98869.69
2022-09-26T18:15:56.026Z,98875.13
2022-09-26T18:17:57.917Z,98875.03
2022-09-26T18:19:59.721Z,98875.75
2022-09-26T18:22:03.217Z,98879.19
2022-09-26T18:24:05.779Z,98875.94
2022-09-26T18:26:08.747Z,98878.06
2022-09-26T18:28:13.184Z,98874.38
2022-09-26T18:30:15.092Z,98877.50
2022-09-26T18:32:27.523Z,98883.16
2022-09-26T18:34:29.189Z,98884.00
2022-09-26T18:36:34.221Z,98882.31
2022-09-26T18:38:35.921Z,98876.97
2022-09-26T18:40:40.512Z,98878.22
2022-09-26T18:42:42.640Z,98875.53
2022-09-26T18:44:44.325Z,98882.19
2022-09-26T18:46:46.559Z,98876.09
2022-09-26T18:48:48.809Z,98879.75
2022-09-26T18:50:50.608Z,98878.91
2022-09-26T18:52:55.674Z,98882.03
2022-09-26T18:54:57.590Z,98881.00
2022-09-26T18:56:59.364Z,98879.34
2022-09-26T18:59:01.259Z,98879.47
2022-09-26T19:01:04.306Z,98879.63
2022-09-26T19:03:06.367Z,98877.91
2022-09-26T19:05:10.687Z,98871.56
2022-09-26T19:07:14.258Z,98876.22
2022-09-26T19:09:20.521Z,98872.00
2022-09-26T19:11:23.452Z,98877.91
2022-09-26T19:13:27.536Z,98877.19
2022-09-26T19:15:29.526Z,98887.94
2022-09-26T19:17:31.354Z,98880.88
2022-09-26T19:19:33.128Z,98882.56
2022-09-26T19:21:38.014Z,98883.56
2022-09-26T19:23:39.848Z,98878.34
2022-09-26T19:25:41.666Z,98878.50
2022-09-26T19:27:49.904Z,98877.78
2022-09-26T19:30:11.973Z,98872.41
2022-09-26T19:32:21.863Z,98879.47
2022-09-26T19:34:23.702Z,98884.72
2022-09-26T19:36:25.558Z,98878.50
2022-09-26T19:38:27.465Z,98885.69
2022-09-26T19:40:29.401Z,98890.22
2022-09-26T19:42:31.263Z,98888.38
2022-09-26T19:44:33.054Z,98894.44
2022-09-26T19:46:35.111Z,98897.97
2022-09-26T19:48:38.978Z,98893.31
2022-09-26T19:50:40.945Z,98898.69
2022-09-26T19:52:42.712Z,98898.97
2022-09-26T19:54:44.709Z,98894.19
2022-09-26T19:56:46.572Z,98898.97
2022-09-26T19:58:48.308Z,98895.56
2022-09-26T20:00:52.405Z,98897.28
2022-09-26T20:02:54.222Z,98896.41
2022-09-26T20:04:55.991Z,98896.28
2022-09-26T20:06:57.685Z,98893.59
2022-09-26T20:09:01.792Z,98895.03
2022-09-26T20:11:03.570Z,98893.47
2022-09-26T20:13:05.281Z,98889.91
2022-09-26T20:15:07.507Z,98888.22
2022-09-26T20:17:27.133Z,98896.16
2022-09-26T20:19:35.672Z,98890.06
2022-09-26T20:21:37.443Z,98894.44
2022-09-26T20:23:39.168Z,98893.59
2022-09-26T20:25:40.936Z,98901.38
2022-09-26T20:27:42.648Z,98904.06
2022-09-26T20:29:45.059Z,98896.16
2022-09-26T20:31:46.769Z,98904.34
2022-09-26T20:33:49.643Z,98906.75
2022-09-26T20:36:02.657Z,98910.28
2022-09-26T20:38:06.886Z,98916.50
2022-09-26T20:40:19.686Z,98912.09
2022-09-26T20:42:21.531Z,98914.06
2022-09-26T20:44:27.931Z,98915.09
2022-09-26T20:46:37.151Z,98920.16
2022-09-26T20:48:40.140Z,98920.44
2022-09-26T20:50:41.868Z,98919.75
2022-09-26T20:52:43.644Z,98921.28
2022-09-26T20:54:45.345Z,98917.91
2022-09-26T20:56:47.098Z,98918.91
2022-09-26T20:58:48.783Z,98916.75
2022-09-26T21:00:50.471Z,98917.63
2022-09-26T21:02:52.531Z,98920.03
2022-09-26T21:04:54.501Z,98922.84
2022-09-26T21:06:56.234Z,98915.09
2022-09-26T21:08:57.942Z,98928.22
2022-09-26T21:10:59.609Z,98930.91
2022-09-26T21:13:01.531Z,98935.31
2022-09-26T21:15:03.400Z,98937.16
2022-09-26T21:17:05.196Z,98934.47
2022-09-26T21:19:06.929Z,98925.53
2022-09-26T21:21:12.003Z,98927.50
2022-09-26T21:23:13.764Z,98933.75
2022-09-26T21:25:19.567Z,98934.28
2022-09-26T21:27:21.407Z,98932.31
2022-09-26T21:29:23.233Z,98931.47
2022-09-26T21:31:35.282Z,98945.03
2022-09-26T21:33:37.737Z,98944.06
2022-09-26T21:35:39.417Z,98947.72
2022-09-26T21:37:42.105Z,98938.00
2022-09-26T21:39:43.845Z,98942.22
2022-09-26T21:41:52.869Z,98940.38
2022-09-26T21:44:01.392Z,98943.06
2022-09-26T21:46:03.133Z,98944.91
2022-09-26T21:48:04.870Z,98949.44
2022-09-26T21:50:07.299Z,98943.06
2022-09-26T21:52:19.788Z,98942.34
2022-09-26T21:54:23.675Z,98942.34
2022-09-26T21:56:28.064Z,98946.75
2022-09-26T21:58:30.636Z,98948.56
2022-09-26T22:00:32.318Z,98957.50
2022-09-26T22:02:34.123Z,98955.78
2022-09-26T22:04:35.865Z,98948.44
2022-09-26T22:06:37.681Z,98952.97
2022-09-26T22:08:39.672Z,98954.81
2022-09-26T22:10:41.371Z,98956.63
2022-09-26T22:12:43.277Z,98953.81
2022-09-26T22:14:45.003Z,98956.50
2022-09-26T22:16:46.821Z,98957.22
2022-09-26T22:18:48.623Z,98952.97
2022-09-26T22:20:56.081Z,98945.88
2022-09-26T22:22:57.805Z,98954.09
2022-09-26T22:24:59.530Z,98956.78
2022-09-26T22:27:01.327Z,98959.47
2022-09-26T22:29:03.046Z,98964.84
2022-09-26T22:31:04.970Z,98963.84
2022-09-26T22:33:06.800Z,98970.91
2022-09-26T22:35:08.678Z,98968.50
2022-09-26T22:37:10.468Z,98965.09
2022-09-26T22:39:12.214Z,98971.34
2022-09-26T22:41:13.912Z,98967.09
2022-09-26T22:43:15.646Z,98967.09
2022-09-26T22:45:17.618Z,98966.09
2022-09-26T22:47:19.361Z,98957.31
2022-09-26T22:49:21.118Z,98958.88
2022-09-26T22:51:22.801Z,98964.25
2022-09-26T22:53:24.518Z,98956.19
2022-09-26T22:55:26.300Z,98967.09
2022-09-26T22:57:28.019Z,98959.03
2022-09-26T22:59:29.795Z,98957.75
2022-09-26T23:01:31.608Z,98953.25
2022-09-26T23:03:33.792Z,98955.78
2022-09-26T23:05:35.488Z,98952.38
2022-09-26T23:07:37.226Z,98952.13
2022-09-26T23:09:38.972Z,98947.00
2022-09-26T23:11:40.670Z,98944.75
2022-09-26T23:13:42.434Z,98938.81
2022-09-26T23:15:44.114Z,98950.28
2022-09-26T23:17:46.538Z,98951.81
2022-09-26T23:19:48.317Z,98952.81
2022-09-26T23:21:50.117Z,98947.31
2022-09-26T23:23:53.406Z,98953.50
2022-09-26T23:25:55.062Z,98946.47
2022-09-26T23:27:56.850Z,98943.34
2022-09-26T23:29:58.528Z,98945.88
2022-09-26T23:32:00.367Z,98947.84
2022-09-26T23:34:02.118Z,98948.56
2022-09-26T23:36:04.062Z,98940.50
2022-09-26T23:38:05.818Z,98944.03
2022-09-26T23:40:08.228Z,98934.88
2022-09-26T23:42:09.950Z,98936.84
2022-09-26T23:44:11.687Z,98943.91
2022-09-26T23:46:13.611Z,98944.75
2022-09-26T23:48:15.515Z,98941.94
2022-09-26T23:50:17.239Z,98944.75
2022-09-26T23:52:18.992Z,98944.75
2022-09-26T23:54:20.703Z,98943.91
2022-09-26T23:56:22.411Z,98948.44
2022-09-26T23:58:24.108Z,98945.63
